MET8601 - McGuire AFB to Boston

Boeing 757-200W
773MU - Charter
0 hrs 55 mins
215 nm
Ferry - Daily

Departure

Departing from
McGuire AFB (WRI)
Departure gate
Ramp
Scheduled Departure
GMT 2155
Local 1755
METAR KWRI 210958Z AUTO 06003KT 10SM CLR 22/21 A2988 RMK AO2 SLP117 T02190209
TAF TAF KWRI 211000Z 2110/2216 36006KT 9999 SCT060 QNH2987INS BECMG 2113/2114 35012KT 9999 SCT075 QNH2990INS BECMG 2117/2118 29012KT 9999 BKN065 QNH2987INS BECMG 2123/2124 VRB06KT 9999 BKN065 QNH2987INS BECMG 2211/2212 07006KT 9999 SCT040 QNH2988INS TX34/2121Z TN20/2210Z

Route Map

Planning Resources

PTPL5 SHLEP HTO ORW7
RBV HFD PUT KBOS
Route:
OFP Layout:
Units:
Detailed Navlog:
ETOPS Planning:
Plan Stepclimbs:
Runway Analysis:
Include NOTAMS:
FIR NOTAMS:
Flight Maps:

Return Flights

MET8600
Boeing 757-200W
1500 GMT

Popularity

Hub Current Bids PiReps this month Total PiReps
KMCI 0 0 1
KLAX 0 0 1
KBOS 0 0 1